Time,TemperatureF,DewpointF,PressureIn,WindDirection,WindDirectionDegrees,WindSpeedMPH,WindSpeedGustMPH,Humidity,HourlyPrecipIn,Conditions,Clouds,dailyrainin,SoftwareType,DateUTC
2013-04-12 00:01:00,31.0,30.0,29.81,North,5,4.0,5.0,96,0.00,,,0.00,weatherlink.com 1.10,2013-04-12 05:01:00,
2013-04-12 00:16:00,30.8,30.0,29.81,NNE,15,1.0,5.0,96,0.00,,,0.00,weatherlink.com 1.10,2013-04-12 05:16:00,
2013-04-12 00:31:00,30.7,30.0,29.81,North,5,2.0,5.0,96,0.00,,,0.00,weatherlink.com 1.10,2013-04-12 05:31:00,
2013-04-12 00:46:00,30.5,30.0,29.81,North,350,5.0,5.0,96,0.00,,,0.00,weatherlink.com 1.10,2013-04-12 05:46:00,
2013-04-12 01:01:00,30.5,30.0,29.81,North,5,1.0,6.0,96,0.00,,,0.00,weatherlink.com 1.10,2013-04-12 06:01:00,
2013-04-12 01:16:00,30.5,30.0,29.81,NNE,16,2.0,7.0,96,0.00,,,0.00,weatherlink.com 1.10,2013-04-12 06:16:00,
2013-04-12 01:31:00,30.5,30.0,29.81,North,9,1.0,5.0,96,0.00,,,0.00,weatherlink.com 1.10,2013-04-12 06:31:00,
2013-04-12 01:46:00,30.4,29.0,29.81,NNE,24,3.0,5.0,96,0.00,,,0.00,weatherlink.com 1.10,2013-04-12 06:46:00,
2013-04-12 02:01:00,30.3,29.0,29.80,NNE,19,1.0,6.0,96,0.00,,,0.00,weatherlink.com 1.10,2013-04-12 07:01:00,
2013-04-12 02:16:00,30.3,29.0,29.80,North,5,1.0,6.0,95,0.00,,,0.00,weatherlink.com 1.10,2013-04-12 07:16:00,
2013-04-12 02:31:00,30.1,29.0,29.80,NNE,14,0.0,3.0,96,0.00,,,0.00,weatherlink.com 1.10,2013-04-12 07:31:00,
2013-04-12 02:46:00,29.8,29.0,29.80,NNE,22,0.0,3.0,95,0.00,,,0.00,weatherlink.com 1.10,2013-04-12 07:46:00,
2013-04-12 03:01:00,29.6,28.0,29.80,NE,36,2.0,6.0,95,0.00,,,0.00,weatherlink.com 1.10,2013-04-12 08:01:00,
2013-04-12 03:16:00,29.4,28.0,29.80,NNE,22,0.0,6.0,95,0.00,,,0.00,weatherlink.com 1.10,2013-04-12 08:16:00,
2013-04-12 03:32:00,29.2,28.0,29.80,NNE,17,3.0,7.0,95,0.00,,,0.00,weatherlink.com 1.10,2013-04-12 08:32:00,
2013-04-12 03:46:00,29.1,28.0,29.80,NW,322,1.0,6.0,95,0.00,,,0.00,weatherlink.com 1.10,2013-04-12 08:46:00,
2013-04-12 04:01:00,28.8,27.0,29.80,NNW,335,1.0,6.0,94,0.00,,,0.00,weatherlink.com 1.10,2013-04-12 09:01:00,
2013-04-12 04:16:00,28.7,27.0,29.80,NW,323,2.0,6.0,94,0.00,,,0.00,weatherlink.com 1.10,2013-04-12 09:16:00,
2013-04-12 04:32:00,28.5,27.0,29.80,NNE,24,0.0,8.0,94,0.00,,,0.00,weatherlink.com 1.10,2013-04-12 09:32:00,
2013-04-12 04:47:00,28.4,27.0,29.80,North,355,2.0,7.0,94,0.00,,,0.00,weatherlink.com 1.10,2013-04-12 09:47:00,
2013-04-12 05:02:00,28.3,27.0,29.80,NNW,334,0.0,5.0,94,0.00,,,0.00,weatherlink.com 1.10,2013-04-12 10:02:00,
2013-04-12 05:17:00,28.3,27.0,29.81,NNE,32,2.0,7.0,93,0.00,,,0.00,weatherlink.com 1.10,2013-04-12 10:17:00,
2013-04-12 05:32:00,28.3,27.0,29.81,North,9,2.0,7.0,94,0.00,,,0.00,weatherlink.com 1.10,2013-04-12 10:32:00,
2013-04-12 05:47:00,28.3,27.0,29.80,NNE,21,3.0,6.0,94,0.00,,,0.00,weatherlink.com 1.10,2013-04-12 10:47:00,
2013-04-12 06:02:00,28.4,27.0,29.80,NNE,13,2.0,6.0,94,0.00,,,0.00,weatherlink.com 1.10,2013-04-12 11:02:00,
2013-04-12 06:17:00,28.3,27.0,29.80,NNE,23,3.0,6.0,94,0.00,,,0.00,weatherlink.com 1.10,2013-04-12 11:17:00,
2013-04-12 06:32:00,28.4,27.0,29.80,NNE,23,0.0,4.0,94,0.00,,,0.00,weatherlink.com 1.10,2013-04-12 11:32:00,
2013-04-12 06:47:00,28.4,27.0,29.80,NNW,334,1.0,5.0,94,0.00,,,0.00,weatherlink.com 1.10,2013-04-12 11:47:00,
2013-04-12 07:02:00,28.4,27.0,29.80,NNW,340,1.0,5.0,94,0.00,,,0.00,weatherlink.com 1.10,2013-04-12 12:02:00,
2013-04-12 07:17:00,28.6,27.0,29.80,NNW,345,0.0,3.0,94,0.00,,,0.00,weatherlink.com 1.10,2013-04-12 12:17:00,
2013-04-12 07:32:00,28.8,27.0,29.81,North,9,1.0,2.0,94,0.00,,,0.00,weatherlink.com 1.10,2013-04-12 12:32:00,
2013-04-12 07:47:00,29.1,28.0,29.81,NNE,28,0.0,4.0,94,0.00,,,0.00,weatherlink.com 1.10,2013-04-12 12:47:00,
2013-04-12 08:02:00,29.5,28.0,29.81,NNE,15,0.0,4.0,94,0.00,,,0.00,weatherlink.com 1.10,2013-04-12 13:02:00,
2013-04-12 08:17:00,29.8,28.0,29.81,NNW,338,3.0,4.0,93,0.00,,,0.00,weatherlink.com 1.10,2013-04-12 13:17:00,
2013-04-12 08:33:00,29.9,28.0,29.81,NNE,28,2.0,5.0,93,0.00,,,0.00,weatherlink.com 1.10,2013-04-12 13:33:00,
2013-04-12 08:47:00,30.5,29.0,29.80,NNW,342,0.0,5.0,92,0.00,,,0.00,weatherlink.com 1.10,2013-04-12 13:47:00,
2013-04-12 09:02:00,30.9,29.0,29.81,North,9,0.0,6.0,91,0.00,,,0.00,weatherlink.com 1.10,2013-04-12 14:02:00,
2013-04-12 09:17:00,31.0,29.0,29.81,North,355,0.0,4.0,90,0.00,,,0.00,weatherlink.com 1.10,2013-04-12 14:17:00,
2013-04-12 09:32:00,31.0,29.0,29.81,NNW,333,2.0,6.0,90,0.00,,,0.00,weatherlink.com 1.10,2013-04-12 14:32:00,
2013-04-12 09:47:00,31.1,28.0,29.81,North,350,0.0,5.0,89,0.00,,,0.00,weatherlink.com 1.10,2013-04-12 14:47:00,
2013-04-12 10:02:00,31.4,29.0,29.82,North,5,0.0,3.0,89,0.00,,,0.00,weatherlink.com 1.10,2013-04-12 15:02:00,
2013-04-12 10:17:00,31.4,29.0,29.82,NNW,340,0.0,3.0,89,0.00,,,0.00,weatherlink.com 1.10,2013-04-12 15:17:00,
2013-04-12 10:32:00,31.3,29.0,29.83,WNW,299,0.0,5.0,89,0.00,,,0.00,weatherlink.com 1.10,2013-04-12 15:32:00,
2013-04-12 10:47:00,31.4,29.0,29.83,WNW,292,1.0,4.0,90,0.00,,,0.00,weatherlink.com 1.10,2013-04-12 15:47:00,
2013-04-12 11:02:00,31.5,29.0,29.83,West,273,2.0,6.0,90,0.00,,,0.00,weatherlink.com 1.10,2013-04-12 16:02:00,
2013-04-12 11:17:00,31.7,29.0,29.83,WNW,294,3.0,6.0,89,0.00,,,0.00,weatherlink.com 1.10,2013-04-12 16:17:00,
2013-04-12 11:32:00,32.2,29.0,29.84,North,355,1.0,5.0,89,0.00,,,0.00,weatherlink.com 1.10,2013-04-12 16:32:00,
2013-04-12 11:47:00,32.4,29.0,29.84,WNW,297,1.0,4.0,88,0.00,,,0.00,weatherlink.com 1.10,2013-04-12 16:47:00,
2013-04-12 12:02:00,32.8,29.0,29.84,NW,320,3.0,5.0,87,0.00,,,0.00,weatherlink.com 1.10,2013-04-12 17:02:00,
2013-04-12 12:17:00,32.9,29.0,29.84,West,275,2.0,7.0,86,0.00,,,0.00,weatherlink.com 1.10,2013-04-12 17:17:00,
2013-04-12 12:32:00,33.4,30.0,29.84,NW,311,2.0,4.0,86,0.00,,,0.00,weatherlink.com 1.10,2013-04-12 17:32:00,
2013-04-12 12:47:00,33.5,29.0,29.84,NNW,329,0.0,7.0,84,0.00,,,0.00,weatherlink.com 1.10,2013-04-12 17:47:00,
2013-04-12 13:02:00,33.9,29.0,29.84,NW,325,4.0,9.0,83,0.00,,,0.00,weatherlink.com 1.10,2013-04-12 18:02:00,
2013-04-12 13:17:00,34.2,30.0,29.84,North,5,0.0,8.0,83,0.00,,,0.00,weatherlink.com 1.10,2013-04-12 18:17:00,
2013-04-12 14:32:00,35.3,29.0,29.86,NW,309,1.0,8.0,79,0.00,,,0.00,weatherlink.com 1.10,2013-04-12 19:32:00,
2013-04-12 14:47:00,35.7,29.0,29.86,West,260,3.0,8.0,78,0.00,,,0.00,weatherlink.com 1.10,2013-04-12 19:47:00,
2013-04-12 15:02:00,35.8,29.0,29.86,West,272,1.0,6.0,77,0.00,,,0.00,weatherlink.com 1.10,2013-04-12 20:02:00,
2013-04-12 15:17:00,35.9,29.0,29.86,NNW,348,1.0,7.0,76,0.00,,,0.00,weatherlink.com 1.10,2013-04-12 20:17:00,
2013-04-12 15:33:00,35.8,28.0,29.86,WNW,303,4.0,9.0,74,0.00,,,0.00,weatherlink.com 1.10,2013-04-12 20:33:00,
2013-04-12 15:48:00,36.0,28.0,29.86,North,355,2.0,9.0,73,0.00,,,0.00,weatherlink.com 1.10,2013-04-12 20:48:00,
2013-04-12 16:03:00,35.9,28.0,29.87,NNW,333,4.0,8.0,72,0.00,,,0.00,weatherlink.com 1.10,2013-04-12 21:03:00,
2013-04-12 16:18:00,36.1,28.0,29.87,NNW,345,7.0,10.0,73,0.00,,,0.00,weatherlink.com 1.10,2013-04-12 21:18:00,
2013-04-12 16:33:00,36.1,28.0,29.87,WNW,301,3.0,9.0,72,0.00,,,0.00,weatherlink.com 1.10,2013-04-12 21:33:00,
2013-04-12 16:48:00,36.1,28.0,29.88,North,350,4.0,5.0,73,0.00,,,0.00,weatherlink.com 1.10,2013-04-12 21:48:00,
2013-04-12 17:03:00,36.1,28.0,29.88,NW,323,0.0,6.0,73,0.00,,,0.00,weatherlink.com 1.10,2013-04-12 22:03:00,
2013-04-12 17:33:00,35.6,29.0,29.89,WNW,291,2.0,5.0,76,0.00,,,0.00,weatherlink.com 1.10,2013-04-12 22:33:00,
2013-04-12 17:48:00,34.7,30.0,29.89,West,268,1.0,6.0,83,0.00,,,0.00,weatherlink.com 1.10,2013-04-12 22:48:00,
2013-04-12 18:18:00,34.5,31.0,29.90,North,355,0.0,4.0,86,0.00,,,0.00,weatherlink.com 1.10,2013-04-12 23:18:00,
2013-04-12 18:33:00,34.3,31.0,29.91,NNW,327,0.0,3.0,86,0.00,,,0.00,weatherlink.com 1.10,2013-04-12 23:33:00,
2013-04-12 18:48:00,34.2,31.0,29.91,WNW,299,1.0,5.0,86,0.00,,,0.00,weatherlink.com 1.10,2013-04-12 23:48:00,
2013-04-12 19:03:00,33.8,30.0,29.92,North,355,3.0,8.0,86,0.00,,,0.00,weatherlink.com 1.10,2013-04-13 00:03:00,
2013-04-12 19:18:00,33.4,30.0,29.92,NNW,329,0.0,5.0,87,0.00,,,0.00,weatherlink.com 1.10,2013-04-13 00:18:00,
2013-04-12 19:33:00,33.2,30.0,29.92,NNW,337,2.0,7.0,88,0.00,,,0.00,weatherlink.com 1.10,2013-04-13 00:33:00,
2013-04-12 19:48:00,32.7,30.0,29.93,NW,319,2.0,5.0,89,0.00,,,0.00,weatherlink.com 1.10,2013-04-13 00:48:00,
2013-04-12 20:03:00,32.5,30.0,29.93,WNW,297,0.0,3.0,90,0.00,,,0.00,weatherlink.com 1.10,2013-04-13 01:03:00,
2013-04-12 20:18:00,32.5,30.0,29.93,NW,313,0.0,4.0,90,0.00,,,0.00,weatherlink.com 1.10,2013-04-13 01:18:00,
2013-04-12 20:33:00,32.5,30.0,29.93,NNW,327,1.0,4.0,89,0.00,,,0.00,weatherlink.com 1.10,2013-04-13 01:33:00,
2013-04-12 20:48:00,32.5,30.0,29.94,NW,326,2.0,5.0,89,0.00,,,0.00,weatherlink.com 1.10,2013-04-13 01:48:00,
2013-04-12 21:03:00,32.4,28.0,29.94,NNE,15,0.0,11.0,83,0.00,,,0.00,weatherlink.com 1.10,2013-04-13 02:03:00,
2013-04-12 21:18:00,32.4,28.0,29.95,NW,323,4.0,6.0,82,0.00,,,0.00,weatherlink.com 1.10,2013-04-13 02:18:00,
2013-04-12 21:33:00,32.3,28.0,29.95,NNW,342,0.0,6.0,83,0.00,,,0.00,weatherlink.com 1.10,2013-04-13 02:33:00,
2013-04-12 21:48:00,32.1,28.0,29.95,NNW,337,1.0,5.0,84,0.00,,,0.00,weatherlink.com 1.10,2013-04-13 02:48:00,
2013-04-12 22:03:00,31.8,28.0,29.96,NNW,338,2.0,7.0,84,0.00,,,0.00,weatherlink.com 1.10,2013-04-13 03:03:00,
2013-04-12 22:18:00,31.6,28.0,29.96,WNW,300,0.0,5.0,85,0.00,,,0.00,weatherlink.com 1.10,2013-04-13 03:18:00,
2013-04-12 22:33:00,31.5,28.0,29.96,NNW,336,1.0,7.0,85,0.00,,,0.00,weatherlink.com 1.10,2013-04-13 03:33:00,
2013-04-12 22:48:00,31.4,28.0,29.96,NNW,336,0.0,7.0,86,0.00,,,0.00,weatherlink.com 1.10,2013-04-13 03:48:00,
2013-04-12 23:03:00,31.3,28.0,29.95,NW,314,0.0,5.0,87,0.00,,,0.00,weatherlink.com 1.10,2013-04-13 04:03:00,
2013-04-12 23:18:00,31.2,28.0,29.95,NW,323,2.0,5.0,87,0.00,,,0.00,weatherlink.com 1.10,2013-04-13 04:18:00,
2013-04-12 23:33:00,31.1,28.0,29.96,NW,323,0.0,6.0,87,0.00,,,0.00,weatherlink.com 1.10,2013-04-13 04:33:00,
2013-04-12 23:48:00,31.0,28.0,29.96,NNE,13,1.0,5.0,88,0.00,,,0.00,weatherlink.com 1.10,2013-04-13 04:48:00,